Burdett, NY (14818)

1:00 AM EST on November 27, 2014 (GMT -0500)
Lakemont | Change Station
CLOSE
Current Station
Personal Weather Station
Location: Dundee, NY
Elevation: 577 ft
Nearby Weather Stations

Elev 577 ft 42.51 °N, 76.92 °W | Updated 14 seconds ago

Snow
Snow
29.9 °F
Feels Like 30 °F
N
0.0
Wind Variable Wind from West
Gusts 0.0 mph

Today
High -- | Low -- °F
--% Chance of Precip.
Yesterday
High -- | Low -- °F
Precip. -- in
7:12 AM 4:36 PM
Waxing Crescent, 26% visible
Pressure 30.02 in
Visibility 1.8 miles
Clouds Scattered Clouds 700 ft
Overcast 2400 ft
Windchill 30 °F
Dew Point 26 °F
Humidity 86%
Rainfall 0.00 in
Snow Depth Not available.
UV 0 out of 12
Pollen .10 out of 12
Air Quality Not available.
Flu Activity Not available.
METAR KPEO 270553Z AUTO 00000KT 1 3/4SM -SN BR SCT007 OVC024 M02/M03 A2999 RMK AO2 SLP166 P0001 60001 T10171028 11011 21022 58002

More Conditions Fewer Conditions

Pressure 30.02 in
Visibility 1.8 miles
Clouds Scattered Clouds 700 ft
Overcast 2400 ft
Windchill 30 °F
Dew Point 26 °F
Humidity 86%
Rainfall 0.00 in
Snow Depth Not available.
UV 0 out of 12
Pollen .10 out of 12
Air Quality Not available.
Flu Activity Not available.
METAR KPEO 270553Z AUTO 00000KT 1 3/4SM -SN BR SCT007 OVC024 M02/M03 A2999 RMK AO2 SLP166 P0001 60001 T10171028 11011 21022 58002

More Conditions Fewer Conditions

10-Day Weather Forecast

Almanac

Astronomy

Nov. 27, 2014 Rise Set
Actual Time
Civil Twilight
Nautical Twilight
Astronomical Twilight
Moon
Length of Visible Light
Length of Day
Tomorrow will be .
, % of the Moon is Illuminated

Today's Extremes

State Highs State Lows

Community

WunderPhotos

Upload Photos

1,773,961 photos uploaded!

WunderBlogs® & News

Nearby

Air Quality

  Air Quality AQ Index Pollutant
Not available.

Snow Depth

Station Depth Elevation

Earthquake Activity

City Distance Mag. Time & Date
Minimum magnitude displayed is 2.5.

Coastal Water Temperatures

Place Temperature

Nearby Weather Stations